Latest Weather Observations for Wilsons Promontory

IDV60801

Issued at 10:02 pm EST Friday 29 May 2015 (issued every 30 minutes, with the page automatically refreshed every 10 minutes)

About weather observations | Map of weather stations | Latest weather observations for VIC | Other Formats
Station Details ID: 085096 Name: WILSONS PROMONTORY LIGHTHOUSE Lat: -39.13 Lon: 146.42 Height: 95.0 m
Data from the previous 72 hours. | See also: Recent months at Wilsons Promontory
Date/Time
EST
Temp
°C
App
Temp
°C
Dew
Point
Rel
Hum
%
Delta-T
°C
Wind Press
QNH
hPa
Press
MSL
hPa
Rain
since 9 am
mm
Dir
 
Spd
km/h
Gust
km/h
Spd
kts
Gust
kts
29/10:00pm 12.5 5.5 8.4 76 2.0 W 35 50 19 27 1019.3 - 2.8
29/09:36pm 12.6 5.2 8.5 76 2.0 W 37 56 20 30 1019.3 - 2.8
29/09:30pm 12.5 4.3 8.4 76 2.0 W 41 56 22 30 1019.4 - 2.8
29/09:04pm 12.3 6.3 8.8 79 1.8 W 30 48 16 26 1019.3 - 2.8
29/09:00pm 12.2 5.6 8.7 79 1.7 W 33 50 18 27 1019.4 1019.4 2.8
29/08:33pm 12.2 6.9 9.8 85 1.2 W 28 59 15 32 1019.2 - 2.8
29/08:30pm 12.2 7.6 9.8 85 1.2 W 24 43 13 23 1019.4 - 2.8
29/08:00pm 11.3 8.3 9.2 87 1.1 NNW 15 28 8 15 1019.7 - 2.8
29/07:30pm 10.9 8.1 8.5 85 1.2 NNW 13 22 7 12 1019.9 - 2.8
29/07:00pm 11.6 8.4 8.3 80 1.6 N 15 26 8 14 1019.6 - 1.8
29/06:30pm 12.2 8.0 8.3 77 1.9 W 20 35 11 19 1019.3 - 1.8
29/06:00pm 12.2 6.4 8.1 76 2.0 W 28 46 15 25 1019.1 1019.1 1.8
29/05:58pm 12.2 6.4 8.1 76 2.0 W 28 46 15 25 1019.0 - 1.8
29/05:30pm 11.7 7.5 8.4 80 1.6 W 20 33 11 18 1019.0 - 1.8
29/05:00pm 11.2 5.9 8.4 83 1.4 W 26 41 14 22 1018.9 - 1.8
29/04:31pm 11.1 5.6 9.0 87 1.0 W 28 46 15 25 1018.6 - 1.8
29/04:30pm 11.0 5.8 8.9 87 1.0 W 26 46 14 25 1018.7 - 1.8
29/04:00pm 11.0 1.5 8.4 84 1.3 W 48 67 26 36 1018.3 - 1.6
29/03:56pm 11.3 1.4 8.3 82 1.5 W 50 59 27 32 1018.1 - 1.6
29/03:35pm 11.9 6.2 8.4 79 1.7 WNW 28 48 15 26 1018.3 - 1.4
29/03:30pm 12.0 7.1 8.5 79 1.7 WNW 24 39 13 21 1018.5 - 1.4
29/03:00pm 12.0 6.0 8.7 80 1.6 W 30 50 16 27 1018.2 1018.2 1.4
29/02:37pm 12.0 6.5 9.0 82 1.5 W 28 54 15 29 1017.9 - 1.4
29/02:30pm 11.8 6.6 8.8 82 1.5 W 26 54 14 29 1017.9 - 1.4
29/02:00pm 11.8 4.9 9.0 83 1.4 W 35 54 19 29 1017.8 - 1.4
29/01:30pm 11.7 5.5 9.3 85 1.2 W 32 50 17 27 1017.8 - 1.4
29/01:00pm 11.8 5.6 9.4 85 1.2 W 32 52 17 28 1017.7 - 1.4
29/12:42pm 11.7 6.3 9.6 87 1.1 W 28 48 15 26 1018.1 - 1.4
29/12:30pm 11.7 6.7 9.6 87 1.1 WNW 26 46 14 25 1018.3 - 1.4
29/12:06pm 11.4 5.5 9.1 86 1.2 W 30 48 16 26 1018.3 - 1.4
29/12:00pm 11.4 4.9 9.0 85 1.2 W 33 46 18 25 1018.4 1018.4 1.4
29/11:30am 11.4 3.6 8.4 82 1.5 W 39 59 21 32 1018.4 - 0.6
29/11:00am 12.2 5.3 8.9 80 1.7 W 35 59 19 32 1018.5 - 0.0
29/10:39am 12.3 4.9 8.4 77 1.9 W 37 56 20 30 1018.4 - 0.0
29/10:30am 12.1 4.7 8.4 78 1.8 W 37 52 20 28 1018.3 - 0.0
29/10:00am 11.5 3.6 8.0 79 1.7 W 39 61 21 33 1018.5 - 0.0
29/09:30am 11.7 3.4 7.6 76 2.0 W 41 59 22 32 1017.9 - 0.0
29/09:00am 11.9 3.4 7.0 72 2.4 W 41 63 22 34 1017.2 1017.2 8.8
29/08:53am 11.9 5.2 7.4 74 2.2 WSW 32 57 17 31 1017.2 - 8.8
29/08:52am 11.9 5.6 7.4 74 2.2 WSW 30 57 16 31 1017.3 - 8.8
29/08:30am 11.6 3.8 8.3 80 1.6 W 39 57 21 31 1017.0 - 8.8
29/08:00am 11.7 2.5 7.8 77 1.9 W 46 69 25 37 1016.4 - 8.8
29/07:57am 11.9 3.1 8.0 77 1.9 W 44 69 24 37 1016.3 - 8.8
29/07:50am 12.1 3.7 7.4 73 2.3 W 41 70 22 38 1016.5 - 8.8
29/07:46am 12.0 -0.2 7.5 74 2.2 W 61 70 33 38 1016.1 - 8.8
29/07:30am 11.4 3.4 7.3 76 2.0 W 39 59 21 32 1016.8 - 8.8
29/07:06am 11.3 1.8 6.8 74 2.1 W 46 65 25 35 1016.7 - 8.8
29/07:00am 11.8 1.3 7.3 74 2.2 W 52 65 28 35 1016.5 - 8.8
29/06:30am 11.6 5.5 8.1 79 1.7 W 30 50 16 27 1016.3 - 8.8
29/06:00am 11.4 1.6 7.1 75 2.1 W 48 67 26 36 1015.7 1015.7 8.8
29/05:31am 11.6 2.0 8.1 79 1.7 W 48 82 26 44 1015.0 - 8.8
29/05:30am 11.8 2.7 8.3 79 1.7 W 46 63 25 34 1015.3 - 8.8
29/05:02am 11.5 3.4 8.5 82 1.5 W 41 63 22 34 1015.2 - 8.8
29/05:00am 11.4 3.2 8.4 82 1.5 W 41 57 22 31 1015.4 - 8.8
29/04:30am 11.1 3.4 8.7 85 1.2 W 39 57 21 31 1015.4 - 8.8
29/04:00am 10.6 3.3 8.7 88 0.9 W 37 65 20 35 1014.9 - 8.6
29/03:48am 10.6 2.9 8.5 87 1.0 W 39 57 21 31 1015.2 - 8.4
29/03:30am 10.7 2.0 8.5 86 1.1 W 44 61 24 33 1014.7 - 8.2
29/03:00am 10.7 -0.5 7.4 80 1.6 W 56 74 30 40 1014.2 1014.2 7.4
29/02:30am 12.2 3.6 8.1 76 2.0 W 43 69 23 37 1014.0 - 7.4
29/02:00am 12.1 2.0 7.4 73 2.3 W 50 74 27 40 1013.7 - 7.4
29/01:30am 12.1 3.9 9.7 85 1.2 W 43 65 23 35 1013.7 - 7.4
29/01:00am 11.7 3.8 9.3 85 1.2 W 41 61 22 33 1013.8 - 7.4
29/12:33am 12.3 4.6 10.2 87 1.1 W 41 59 22 32 1013.6 - 7.4
29/12:30am 12.3 3.6 10.0 86 1.2 W 46 63 25 34 1013.5 - 7.4
29/12:00am 12.5 3.5 10.2 86 1.2 W 48 67 26 36 1013.1 1013.1 7.4
 
Date/Time
EST
Temp
°C
App
Temp
°C
Dew
Point
Rel
Hum
%
Delta-T
°C
Wind Press
QNH
hPa
Press
MSL
hPa
Rain
since 9 am
mm
Dir
 
Spd
km/h
Gust
km/h
Spd
kts
Gust
kts
28/11:30pm 12.2 4.0 10.4 89 0.9 W 44 67 24 36 1013.5 - 7.4
28/11:00pm 11.7 4.2 10.9 95 0.4 W 41 61 22 33 1013.5 - 7.2
28/10:32pm 11.5 2.6 10.7 95 0.4 W 48 67 26 36 1013.6 - 7.2
28/10:30pm 11.5 2.2 10.7 95 0.4 W 50 67 27 36 1013.3 - 7.2
28/10:26pm 11.6 2.8 10.8 95 0.4 W 48 67 26 36 1013.4 - 7.2
28/10:23pm 11.4 0.8 10.6 95 0.4 W 57 67 31 36 1013.3 - 7.2
28/10:00pm 11.8 5.5 10.9 94 0.5 W 35 54 19 29 1013.4 - 5.6
28/09:35pm 12.0 4.0 11.1 94 0.5 W 44 65 24 35 1013.2 - 5.2
28/09:30pm 12.1 4.3 11.0 93 0.6 W 43 57 23 31 1013.2 - 4.8
28/09:09pm 12.3 6.0 11.0 92 0.7 W 35 54 19 29 1013.1 - 4.0
28/09:00pm 12.4 5.7 11.1 92 0.7 W 37 54 20 29 1013.0 1013.0 4.0
28/08:34pm 12.5 5.0 10.9 90 0.8 W 41 63 22 34 1012.6 - 3.2
28/08:30pm 12.8 5.4 11.2 90 0.8 W 41 56 22 30 1012.7 - 3.2
28/08:00pm 13.4 6.0 11.1 86 1.2 W 41 61 22 33 1012.4 - 3.2
28/07:30pm 13.6 5.7 10.9 84 1.4 W 43 61 23 33 1012.1 - 3.2
28/07:00pm 13.9 5.2 10.1 78 2.0 W 46 67 25 36 1011.9 - 2.4
28/06:51pm 14.2 8.9 10.0 76 2.2 W 28 63 15 34 1011.7 - 2.2
28/06:47pm 14.1 9.6 10.1 77 2.1 W 24 65 13 35 1011.6 - 2.2
28/06:45pm 14.1 7.1 10.1 77 2.1 NW 37 69 20 37 1011.5 - 2.2
28/06:33pm 15.1 10.1 11.1 77 2.1 W 28 63 15 34 1011.6 - 0.6
28/06:30pm 15.2 11.4 11.0 76 2.2 W 22 41 12 22 1011.7 - 0.4
28/06:00pm 16.2 14.6 10.1 67 3.2 N 9 24 5 13 1010.9 1010.9 0.0
28/05:30pm 16.7 15.1 10.1 65 3.5 NNE 9 17 5 9 1011.2 - 0.0
28/05:00pm 17.5 15.3 9.4 59 4.3 N 11 24 6 13 1010.9 - 0.0
28/04:30pm 17.8 14.0 9.2 57 4.5 NNW 19 44 10 24 1010.9 - 0.0
28/04:00pm 18.1 15.1 9.2 56 4.7 N 15 28 8 15 1011.0 - 0.0
28/03:30pm 18.3 15.3 9.4 56 4.7 N 15 33 8 18 1011.2 - 0.0
28/03:00pm 18.0 15.4 9.4 57 4.5 WNW 13 30 7 16 1011.4 1011.4 0.0
28/02:30pm 18.1 16.2 10.5 61 4.1 SW 11 24 6 13 1011.6 - 0.0
28/02:00pm 18.4 16.2 10.7 61 4.2 W 13 22 7 12 1011.9 - 0.0
28/01:30pm 18.0 16.3 11.1 64 3.8 N 11 20 6 11 1012.0 - 0.0
28/01:00pm 18.0 16.4 11.6 66 3.5 W 11 33 6 18 1012.6 - 0.0
28/12:30pm 18.1 15.1 10.7 62 4.0 W 17 30 9 16 1013.0 - 0.0
28/12:00pm 18.5 14.4 10.1 58 4.5 NNW 22 50 12 27 1013.6 1013.6 0.0
28/11:30am 18.7 15.2 8.9 53 5.1 N 17 39 9 21 1014.3 - 0.0
28/11:00am 18.4 14.8 8.4 52 5.2 NNW 17 46 9 25 1014.6 - 0.0
28/10:30am 18.1 13.7 8.9 55 4.8 N 22 46 12 25 1015.1 - 0.0
28/10:00am 17.5 13.7 8.9 57 4.5 NNW 19 41 10 22 1015.1 - 0.0
28/09:30am 17.5 13.3 8.4 55 4.7 N 20 41 11 22 1015.4 - 0.0
28/09:00am 17.3 13.2 7.9 54 4.8 NNW 19 43 10 23 1015.4 1015.4 1.6
28/08:30am 17.1 12.2 8.3 56 4.5 NNW 24 43 13 23 1015.5 - 1.6
28/08:00am 16.9 12.9 8.3 57 4.4 NNW 19 39 10 21 1015.4 - 1.6
28/07:30am 16.8 12.5 8.0 56 4.5 N 20 39 11 21 1015.4 - 1.6
28/07:00am 16.9 11.9 8.1 56 4.5 N 24 41 13 22 1015.2 - 1.6
28/06:30am 16.9 12.8 8.8 59 4.2 NNW 20 44 11 24 1015.2 - 1.6
28/06:00am 16.4 12.6 9.1 62 3.8 N 19 39 10 21 1015.2 1015.2 1.6
28/05:30am 16.3 12.0 9.3 63 3.6 N 22 46 12 25 1015.1 - 1.6
28/05:07am 16.3 10.8 9.0 62 3.8 N 28 54 15 29 1015.0 - 1.6
28/05:00am 16.1 12.1 9.1 63 3.6 N 20 43 11 23 1015.1 - 1.6
28/04:30am 16.3 11.5 9.0 62 3.8 N 24 46 13 25 1015.3 - 1.6
28/04:00am 16.2 12.3 9.4 64 3.5 N 20 43 11 23 1015.4 - 1.6
28/03:30am 16.2 12.9 9.4 64 3.5 NNW 17 32 9 17 1015.5 - 1.6
28/03:00am 16.5 12.2 9.4 63 3.7 NNW 22 48 12 26 1015.7 1015.7 1.6
28/02:30am 16.5 12.6 9.4 63 3.7 NNW 20 37 11 20 1016.0 - 1.6
28/02:00am 16.7 12.5 9.9 64 3.6 NNW 22 52 12 28 1016.3 - 1.6
28/01:30am 16.8 12.3 10.0 64 3.6 NNW 24 56 13 30 1016.1 - 1.6
28/01:22am 16.9 11.7 10.1 64 3.6 NNW 28 56 15 30 1016.0 - 1.6
28/01:00am 16.8 12.7 10.0 64 3.6 NNW 22 52 12 28 1016.3 - 1.6
28/12:30am 16.6 11.7 10.0 65 3.5 NNW 26 50 14 27 1016.5 - 1.6
28/12:25am 16.6 11.3 10.0 65 3.5 NNW 28 54 15 29 1016.4 - 1.6
28/12:00am 16.6 12.0 9.8 64 3.6 NNW 24 43 13 23 1016.6 1016.6 1.6
 
Date/Time
EST
Temp
°C
App
Temp
°C
Dew
Point
Rel
Hum
%
Delta-T
°C
Wind Press
QNH
hPa
Press
MSL
hPa
Rain
since 9 am
mm
Dir
 
Spd
km/h
Gust
km/h
Spd
kts
Gust
kts
27/11:47pm 16.7 11.4 9.9 64 3.6 NNW 28 56 15 30 1016.6 - 1.6
27/11:30pm 16.5 12.0 10.1 66 3.4 NNW 24 44 13 24 1016.8 - 1.6
27/11:00pm 16.3 12.6 10.2 67 3.2 NNW 20 46 11 25 1016.7 - 1.6
27/10:30pm 15.9 12.3 10.0 68 3.1 NNW 19 41 10 22 1016.8 - 1.6
27/10:00pm 15.7 10.4 9.8 68 3.1 NNW 28 59 15 32 1017.1 - 1.6
27/09:31pm 15.5 10.3 10.1 70 2.8 NNW 28 48 15 26 1017.2 - 1.6
27/09:30pm 15.6 10.8 10.2 70 2.8 NNW 26 48 14 26 1017.2 - 1.6
27/09:00pm 15.4 9.8 10.2 71 2.7 NNW 30 52 16 28 1017.2 1017.2 1.6
27/08:45pm 15.4 10.2 10.4 72 2.6 NNW 28 46 15 25 1017.2 - 1.6
27/08:30pm 15.5 10.7 10.3 71 2.7 NNW 26 44 14 24 1017.3 - 1.6
27/08:01pm 15.7 10.6 10.5 71 2.8 NNW 28 46 15 25 1017.6 - 1.6
27/08:00pm 15.7 10.2 10.5 71 2.8 NNW 30 46 16 25 1017.5 - 1.6
27/07:56pm 15.7 10.6 10.7 72 2.7 NNW 28 46 15 25 1017.5 - 1.6
27/07:30pm 15.7 11.3 10.5 71 2.8 NNW 24 48 13 26 1017.5 - 1.6
27/07:08pm 15.9 10.8 10.7 71 2.8 NNW 28 46 15 25 1017.3 - 1.6
27/07:00pm 15.8 11.1 10.8 72 2.7 NNW 26 43 14 23 1017.4 - 1.6
27/06:30pm 15.8 11.9 10.8 72 2.7 NNW 22 37 12 20 1017.3 - 1.6
27/06:00pm 15.7 11.4 10.9 73 2.6 NNW 24 41 13 22 1017.2 1017.2 1.6
27/05:30pm 15.7 11.4 10.9 73 2.6 NNW 24 39 13 21 1017.0 - 1.6
27/05:00pm 15.7 11.4 10.9 73 2.6 N 24 41 13 22 1016.7 - 1.6
27/04:30pm 15.7 12.4 10.9 73 2.6 NNW 19 30 10 16 1016.7 - 1.6
27/04:00pm 15.9 12.4 10.9 72 2.7 NNW 20 35 11 19 1016.8 - 1.6
27/03:30pm 16.1 12.7 11.3 73 2.6 NNW 20 35 11 19 1016.9 - 1.6
27/03:00pm 15.6 12.8 11.4 76 2.3 NNW 17 33 9 18 1016.9 1016.9 1.6
27/02:30pm 15.9 12.5 11.3 74 2.5 NNW 20 32 11 17 1017.0 - 1.6
27/02:00pm 15.7 12.6 11.5 76 2.3 NNW 19 37 10 20 1017.3 - 1.6
27/01:30pm 16.2 14.6 11.4 73 2.6 N 11 19 6 10 1017.6 - 1.4
27/01:00pm 15.6 14.3 12.5 82 1.7 NNE 11 24 6 13 1017.9 - 1.4
27/12:30pm 14.0 11.9 11.0 82 1.6 NNW 13 17 7 9 1018.2 - 1.4
27/12:00pm 14.7 12.4 11.8 83 1.6 NNE 15 20 8 11 1018.6 1018.6 1.4
27/11:30am 13.9 11.6 11.8 87 1.1 NNE 15 19 8 10 1019.1 - 1.4
27/11:00am 13.2 10.9 10.6 84 1.4 NNE 13 17 7 9 1019.6 - 1.4
27/10:30am 12.9 10.1 9.9 82 1.5 N 15 20 8 11 1019.7 - 1.2
27/10:00am 14.0 10.4 10.0 77 2.1 N 19 24 10 13 1019.9 - 0.0
27/09:30am 13.5 10.2 9.6 77 2.0 N 17 26 9 14 1020.0 - 0.0
27/09:00am 13.4 11.3 9.6 78 1.9 N 11 20 6 11 1020.2 1020.2 0.0
27/08:30am 13.6 10.9 9.1 74 2.3 N 13 24 7 13 1020.3 - 0.0
27/08:00am 14.5 11.4 8.7 68 2.9 N 15 26 8 14 1020.2 - 0.0
27/07:30am 12.9 8.8 8.8 76 2.1 N 20 30 11 16 1020.2 - 0.0
27/07:00am 13.0 9.0 8.1 72 2.4 N 19 26 10 14 1020.1 - 0.0
27/06:30am 12.7 10.2 8.2 74 2.2 NE 11 17 6 9 1020.0 - 0.0
27/06:00am 12.4 7.6 7.5 72 2.4 NNE 22 28 12 15 1019.9 1019.9 0.0
27/05:30am 12.6 8.2 7.5 71 2.5 NNE 20 26 11 14 1020.1 - 0.0
27/05:00am 12.1 7.1 8.0 76 2.0 NNE 24 30 13 16 1020.3 - 0.0
27/04:30am 12.0 6.6 7.9 76 2.0 NNE 26 32 14 17 1020.4 - 0.0
27/04:00am 12.1 6.8 7.0 71 2.5 NNE 24 33 13 18 1020.7 - 0.0
27/03:30am 11.9 6.6 6.8 71 2.4 NNE 24 30 13 16 1021.0 - 0.0
27/03:00am 12.3 6.9 6.4 67 2.8 NNE 24 30 13 16 1021.3 1021.3 0.0
27/02:30am 12.3 7.8 7.0 70 2.6 NNE 20 28 11 15 1021.7 - 0.0
27/02:00am 12.4 7.9 7.1 70 2.6 NNE 20 26 11 14 1021.9 - 0.0
27/01:30am 12.8 8.1 6.2 64 3.1 NNE 20 26 11 14 1022.1 - 0.0
27/01:00am 12.9 8.3 5.6 61 3.4 N 19 24 10 13 1022.5 - 0.0
27/12:30am 13.0 8.5 5.9 62 3.4 NNE 19 30 10 16 1022.9 - 0.0
27/12:00am 12.7 7.4 7.0 68 2.7 N 24 32 13 17 1023.0 1023.0 0.0
 
Date/Time
EST
Temp
°C
App
Temp
°C
Dew
Point
Rel
Hum
%
Delta-T
°C
Wind Press
QNH
hPa
Press
MSL
hPa
Rain
since 9 am
mm
Dir
 
Spd
km/h
Gust
km/h
Spd
kts
Gust
kts
26/11:30pm 13.0 7.7 6.6 65 3.1 N 24 30 13 16 1023.2 - 0.0
26/11:00pm 12.8 7.2 7.0 68 2.8 N 26 32 14 17 1023.2 - 0.0
26/10:30pm 12.8 8.5 7.7 71 2.5 N 20 28 11 15 1023.4 - 0.0

Other Formats:

Comma delimited format used in spreadsheet applications
http://www.bom.gov.au/fwo/IDV60801/IDV60801.94893.axf

JavaScript Object Notation format (JSON) in row-major order
http://www.bom.gov.au/fwo/IDV60801/IDV60801.94893.json